Polar Endurance — WDG2085 — position and weather

sailwx.info

Track history (hours):
 
Tides and Currents Weather Stations Pressure Air Temp Water Temp Dewpoint Dewpoint Depression Visibility Wind Speed Wind Dir Waves Ship Positions

Polar Endurance

Owner: Dunlap Towing Co., LaConner, WA. More information available from US FCC via Universal Licensing System and Coast Guard Vessel Documentation Center.

Last reported at 2015-May-04 18:00 UTC. Time now 2015-May-04 21:08 UTC.
Position N 59°12' W 152°00'.

Length 37 m.

Type: Towing. MMSI: 303144000.

Wind from 999 at 5 knots

Barometer 1018.8 mb
Air temperature 7.2 ° C
Visibility: greater than 5.4 NM
Water temperature 6.9 ° C

Date/timePositionNaut miles runAvg speedWind from/ knotsBaromVisibWave heightAir tempDewpointWater temp
2015-May-04 18:00N 59°12' W 152°00'   999 / 51018.8 5.4 7.2 6.9
2015-Apr-30 18:00N 58°18' W 139°42'113 9.0 120 / 191006.0 5.4 1.013.9 8.5
2015-Apr-30 05:31N 58°15' W 136°08'8 8.4
2015-Apr-30 04:33N 58°17' W 135°53'  
2015-Apr-26 17:33N 51°06' W 127°44'1110.5
2015-Apr-26 16:33N 50°58' W 127°32'1010.2
2015-Apr-26 15:33N 50°53' W 127°19'1010.0
2015-Apr-26 14:30N 50°47' W 127°05'10 9.9
2015-Apr-26 13:29N 50°41' W 126°52'11 9.6
2015-Apr-26 12:22N 50°33' W 126°41'107 8.1
2015-Apr-25 23:13N 49°34' W 124°22'6 9.0
2015-Apr-25 22:30N 49°31' W 124°13'9 9.9
2015-Apr-25 21:33N 49°25' W 124°02'12 9.5
2015-Apr-25 20:17N 49°18' W 123°47'7 9.8
2015-Apr-25 19:33N 49°14' W 123°38'1010.0
2015-Apr-25 18:33N 49°08' W 123°27'9 9.4
2015-Apr-25 17:33N 49°01' W 123°16'9 9.4
2015-Apr-25 16:33N 48°55' W 123°05'10 9.6
2015-Apr-25 15:33N 48°49' W 122°54'10 9.5
2015-Apr-25 14:29N 48°42' W 122°43'8 8.5
2015-Apr-25 13:33N 48°34' W 122°45'9 8.7
2015-Apr-25 12:33N 48°25' W 122°44'11 9.0
2015-Apr-25 11:20N 48°14' W 122°48'1910.8
2015-Apr-25 09:33N 47°58' W 122°34'10 9.9
2015-Apr-25 08:33N 47°49' W 122°27'10 9.9
2015-Apr-25 07:33N 47°39' W 122°27'5 4.7
2015-Apr-25 06:28N 47°36' W 122°22'0 0.4
2015-Apr-25 05:22N 47°35' W 122°21'0 0.0
2015-Apr-25 03:29N 47°35' W 122°21'0 0.0
2015-Apr-25 02:20N 47°35' W 122°21'0 0.0
2015-Apr-25 01:30N 47°35' W 122°21'0 0.0
2015-Apr-25 00:27N 47°35' W 122°21'0 0.0
2015-Apr-24 23:33N 47°35' W 122°21'0 0.0
2015-Apr-24 22:33N 47°35' W 122°21'2 1.6
2015-Apr-24 21:33N 47°36' W 122°23'1010.5
2015-Apr-24 20:33N 47°47' W 122°25'1111.5
2015-Apr-24 19:33N 47°57' W 122°18'4 3.9
2015-Apr-24 18:33N 47°59' W 122°13'  
Track history (hours):
 
Tides and Currents Weather Stations Pressure Air Temp Water Temp Dewpoint Dewpoint Depression Visibility Wind Speed Wind Dir Waves Ship Positions

Polar Endurance

Owner: Dunlap Towing Co., LaConner, WA. More information available from US FCC via Universal Licensing System and Coast Guard Vessel Documentation Center.

Last reported at 2015-May-04 18:00 UTC. Time now 2015-May-04 21:08 UTC.
Position N 59°12' W 152°00'.

Length 37 m.

Type: Towing. MMSI: 303144000.

Wind from 999 at 5 knots

Barometer 1018.8 mb
Air temperature 7.2 ° C
Visibility: greater than 5.4 NM
Water temperature 6.9 ° C

Date/timePositionNaut miles runAvg speedWind from/ knotsBaromVisibWave heightAir tempDewpointWater temp
2015-May-04 18:00N 59°12' W 152°00'   999 / 51018.8 5.4 7.2 6.9
2015-Apr-30 18:00N 58°18' W 139°42'113 9.0 120 / 191006.0 5.4 1.013.9 8.5
2015-Apr-30 05:31N 58°15' W 136°08'8 8.4
2015-Apr-30 04:33N 58°17' W 135°53'  
2015-Apr-26 17:33N 51°06' W 127°44'1110.5
2015-Apr-26 16:33N 50°58' W 127°32'1010.2
2015-Apr-26 15:33N 50°53' W 127°19'1010.0
2015-Apr-26 14:30N 50°47' W 127°05'10 9.9
2015-Apr-26 13:29N 50°41' W 126°52'11 9.6
2015-Apr-26 12:22N 50°33' W 126°41'107 8.1
2015-Apr-25 23:13N 49°34' W 124°22'6 9.0
2015-Apr-25 22:30N 49°31' W 124°13'9 9.9
2015-Apr-25 21:33N 49°25' W 124°02'12 9.5
2015-Apr-25 20:17N 49°18' W 123°47'7 9.8
2015-Apr-25 19:33N 49°14' W 123°38'1010.0
2015-Apr-25 18:33N 49°08' W 123°27'9 9.4
2015-Apr-25 17:33N 49°01' W 123°16'9 9.4
2015-Apr-25 16:33N 48°55' W 123°05'10 9.6
2015-Apr-25 15:33N 48°49' W 122°54'10 9.5
2015-Apr-25 14:29N 48°42' W 122°43'8 8.5
2015-Apr-25 13:33N 48°34' W 122°45'9 8.7
2015-Apr-25 12:33N 48°25' W 122°44'11 9.0
2015-Apr-25 11:20N 48°14' W 122°48'1910.8
2015-Apr-25 09:33N 47°58' W 122°34'10 9.9
2015-Apr-25 08:33N 47°49' W 122°27'10 9.9
2015-Apr-25 07:33N 47°39' W 122°27'5 4.7
2015-Apr-25 06:28N 47°36' W 122°22'0 0.4
2015-Apr-25 05:22N 47°35' W 122°21'0 0.0
2015-Apr-25 03:29N 47°35' W 122°21'0 0.0
2015-Apr-25 02:20N 47°35' W 122°21'0 0.0
2015-Apr-25 01:30N 47°35' W 122°21'0 0.0
2015-Apr-25 00:27N 47°35' W 122°21'0 0.0
2015-Apr-24 23:33N 47°35' W 122°21'0 0.0
2015-Apr-24 22:33N 47°35' W 122°21'2 1.6
2015-Apr-24 21:33N 47°36' W 122°23'1010.5
2015-Apr-24 20:33N 47°47' W 122°25'1111.5
2015-Apr-24 19:33N 47°57' W 122°18'4 3.9
2015-Apr-24 18:33N 47°59' W 122°13'  

Dump ship's entire track history